createdAt,value
2019-01-05T00:00:09.460Z,99615.18
2019-01-05T00:03:04.485Z,99608.02
2019-01-05T00:05:52.183Z,99606.21
2019-01-05T00:08:53.333Z,99598.86
2019-01-05T00:11:43.101Z,99603.08
2019-01-05T00:18:22.937Z,99598.79
2019-01-05T00:21:22.498Z,99588.36
2019-01-05T00:30:28.127Z,99570.20
2019-01-05T00:33:16.176Z,99572.95
2019-01-05T00:36:22.536Z,99576.83
2019-01-05T00:39:13.174Z,99578.00
2019-01-05T00:42:00.823Z,99572.52
2019-01-05T00:45:01.806Z,99577.00
2019-01-05T00:47:59.750Z,99576.02
2019-01-05T00:51:03.963Z,99572.53
2019-01-05T00:53:55.008Z,99571.88
2019-01-05T00:56:54.406Z,99569.47
2019-01-05T00:59:42.866Z,99583.63
2019-01-05T01:06:22.525Z,99579.52
2019-01-05T01:09:14.704Z,99588.10
2019-01-05T01:12:02.235Z,99583.55
2019-01-05T01:14:53.710Z,99585.61
2019-01-05T01:21:32.352Z,99590.07
2019-01-05T01:31:38.522Z,99593.10
2019-01-05T01:45:04.923Z,99588.72
2019-01-05T01:47:53.610Z,99589.91
2019-01-05T01:54:35.570Z,99580.20
2019-01-05T02:04:36.799Z,99588.27
2019-01-05T02:07:25.201Z,99581.27
2019-01-05T02:29:49.093Z,99548.03
2019-01-05T02:33:47.549Z,99543.31
2019-01-05T02:37:14.270Z,99541.87
2019-01-05T02:40:59.029Z,99541.14
2019-01-05T02:44:54.936Z,99526.80
2019-01-05T02:48:33.594Z,99524.94
2019-01-05T02:52:25.118Z,99523.94
2019-01-05T02:56:08.981Z,99518.39
2019-01-05T02:59:56.837Z,99512.39
2019-01-05T03:03:48.205Z,99504.14
2019-01-05T03:07:26.998Z,99501.36
2019-01-05T03:11:08.003Z,99496.36
2019-01-05T03:15:08.838Z,99485.72
2019-01-05T03:19:15.769Z,99486.78
2019-01-05T03:22:52.798Z,99473.59
2019-01-05T03:26:50.614Z,99467.59
2019-01-05T03:30:23.669Z,99451.21
2019-01-05T03:34:19.855Z,99446.00
2019-01-05T03:55:49.784Z,99392.25
2019-01-05T03:59:44.088Z,99374.96
2019-01-05T04:03:36.518Z,99367.52
2019-01-05T04:07:19.068Z,99371.61
2019-01-05T04:10:57.420Z,99367.52
2019-01-05T04:14:41.664Z,99372.15
2019-01-05T04:25:34.808Z,99376.98
2019-01-05T04:29:37.654Z,99377.95
2019-01-05T04:33:03.822Z,99383.63
2019-01-05T04:47:37.063Z,99384.23
2019-01-05T05:01:20.296Z,99375.13
2019-01-05T05:04:56.908Z,99374.97
2019-01-05T05:08:42.316Z,99368.33
2019-01-05T05:12:47.054Z,99357.42
2019-01-05T05:16:14.694Z,99357.25
2019-01-05T05:20:01.411Z,99351.67
2019-01-05T05:23:45.557Z,99347.92
2019-01-05T05:27:24.694Z,99339.31
2019-01-05T05:31:22.810Z,99339.16
2019-01-05T05:35:22.472Z,99337.91
2019-01-05T05:39:22.841Z,99333.05
2019-01-05T05:43:12.716Z,99333.07
2019-01-05T05:46:33.338Z,99329.50
2019-01-05T05:50:19.502Z,99326.99
2019-01-05T05:53:35.188Z,99319.66
2019-01-05T05:57:45.351Z,99315.26
2019-01-05T06:02:25.647Z,99309.08
2019-01-05T06:06:20.063Z,99296.92
2019-01-05T06:09:45.601Z,99301.84
2019-01-05T06:13:50.146Z,99299.80
2019-01-05T06:17:27.761Z,99286.92
2019-01-05T06:21:24.202Z,99293.88
2019-01-05T06:45:56.760Z,99283.70
2019-01-05T06:49:45.382Z,99300.44
2019-01-05T06:53:27.305Z,99296.03
2019-01-05T06:57:39.113Z,99272.77
2019-01-05T07:01:24.143Z,99279.59
2019-01-05T07:05:10.536Z,99274.39
2019-01-05T07:24:13.656Z,99276.17
2019-01-05T07:42:29.573Z,99246.45
2019-01-05T07:46:22.926Z,99240.20
2019-01-05T07:50:39.534Z,99244.83
2019-01-05T07:54:52.026Z,99260.31
2019-01-05T07:58:38.400Z,99254.08
2019-01-05T08:02:29.170Z,99241.83
2019-01-05T08:06:21.857Z,99237.95
2019-01-05T08:10:07.437Z,99240.20
2019-01-05T08:14:25.958Z,99242.25
2019-01-05T08:18:43.590Z,99240.30
2019-01-05T08:22:45.749Z,99250.22
2019-01-05T08:27:00.585Z,99243.95
2019-01-05T08:30:35.634Z,99248.78
2019-01-05T08:34:20.371Z,99242.33
2019-01-05T08:38:18.839Z,99245.92
2019-01-05T08:42:02.438Z,99239.73
2019-01-05T08:46:02.096Z,99236.17
2019-01-05T08:50:39.521Z,99237.69
2019-01-05T08:54:26.231Z,99240.42
2019-01-05T08:58:17.486Z,99243.42
2019-01-05T09:02:01.726Z,99242.59
2019-01-05T09:05:31.260Z,99260.20
2019-01-05T09:09:18.188Z,99249.77
2019-01-05T09:13:22.742Z,99269.46
2019-01-05T09:24:55.510Z,99249.16
2019-01-05T09:29:10.674Z,99235.53
2019-01-05T09:33:09.419Z,99230.17
2019-01-05T09:37:01.994Z,99221.94
2019-01-05T09:40:39.620Z,99214.08
2019-01-05T09:51:19.125Z,99223.53
2019-01-05T10:14:58.775Z,99222.84
2019-01-05T10:18:43.777Z,99211.91
2019-01-05T10:22:10.710Z,99223.19
2019-01-05T10:26:02.270Z,99209.22
2019-01-05T10:29:51.274Z,99217.98
2019-01-05T10:33:59.229Z,99203.28
2019-01-05T10:38:16.464Z,99202.77
2019-01-05T10:42:12.962Z,99207.16
2019-01-05T10:46:09.885Z,99205.72
2019-01-05T10:49:47.755Z,99207.77
2019-01-05T10:53:25.492Z,99204.72
2019-01-05T10:57:35.946Z,99205.80
2019-01-05T11:01:51.416Z,99193.79
2019-01-05T11:05:41.244Z,99196.22
2019-01-05T11:09:09.385Z,99183.05
2019-01-05T11:13:19.070Z,99200.85
2019-01-05T11:16:44.405Z,99191.95
2019-01-05T11:20:35.906Z,99187.52
2019-01-05T11:24:27.772Z,99193.41
2019-01-05T11:28:14.412Z,99183.23
2019-01-05T11:31:55.450Z,99176.25
2019-01-05T11:35:35.073Z,99177.94
2019-01-05T11:39:36.873Z,99168.79
2019-01-05T11:43:11.814Z,99170.09
2019-01-05T11:47:15.016Z,99166.73
2019-01-05T11:50:57.077Z,99167.59
2019-01-05T11:54:45.078Z,99160.45
2019-01-05T11:58:31.702Z,99157.11
2019-01-05T12:09:07.857Z,99150.22
2019-01-05T12:49:14.527Z,99130.96
2019-01-05T12:53:11.363Z,99132.27
2019-01-05T12:57:12.718Z,99132.18
2019-01-05T13:01:22.827Z,99129.59
2019-01-05T13:05:10.802Z,99129.09
2019-01-05T13:08:53.469Z,99124.87
2019-01-05T13:12:42.815Z,99131.95
2019-01-05T13:16:13.015Z,99132.75
2019-01-05T13:19:40.263Z,99125.17
2019-01-05T13:23:28.843Z,99123.83
2019-01-05T13:27:06.690Z,99123.38
2019-01-05T13:31:02.593Z,99121.54
2019-01-05T13:35:05.506Z,99117.34
2019-01-05T13:39:02.767Z,99130.91
2019-01-05T13:42:50.712Z,99131.79
2019-01-05T13:46:29.869Z,99128.94
2019-01-05T13:50:12.993Z,99123.38
2019-01-05T13:53:53.956Z,99124.01
2019-01-05T13:57:01.653Z,99127.18
2019-01-05T14:00:02.923Z,99120.82
2019-01-05T14:02:50.220Z,99131.31
2019-01-05T14:05:54.391Z,99128.14
2019-01-05T14:08:37.101Z,99131.74
2019-01-05T14:15:09.001Z,99142.28
2019-01-05T14:18:04.322Z,99137.02
2019-01-05T14:21:04.095Z,99127.77
2019-01-05T14:23:51.868Z,99139.89
2019-01-05T14:26:50.379Z,99128.64
2019-01-05T14:29:31.559Z,99139.89
2019-01-05T14:39:01.785Z,99146.09
2019-01-05T14:41:53.745Z,99146.92
2019-01-05T15:11:34.795Z,99142.35
2019-01-05T15:14:17.651Z,99132.59
2019-01-05T15:17:10.467Z,99149.99
2019-01-05T15:20:02.454Z,99143.84
2019-01-05T15:22:51.344Z,99150.19
2019-01-05T15:25:40.621Z,99143.80
2019-01-05T15:28:41.908Z,99153.67
2019-01-05T15:31:39.553Z,99140.73
2019-01-05T15:34:43.327Z,99145.56
2019-01-05T15:37:30.869Z,99148.76
2019-01-05T15:40:19.717Z,99142.60
2019-01-05T15:43:17.913Z,99151.19
2019-01-05T15:46:06.991Z,99153.92
2019-01-05T15:49:07.761Z,99152.69
2019-01-05T15:51:55.776Z,99154.63
2019-01-05T15:54:59.880Z,99158.28
2019-01-05T15:57:47.197Z,99163.99
2019-01-05T16:00:34.395Z,99160.78
2019-01-05T16:03:18.048Z,99160.31
2019-01-05T16:06:05.580Z,99168.24
2019-01-05T16:09:06.539Z,99165.03
2019-01-05T16:11:59.620Z,99164.25
2019-01-05T16:14:58.397Z,99169.27
2019-01-05T16:18:01.186Z,99172.66
2019-01-05T16:20:49.085Z,99168.90
2019-01-05T16:23:38.386Z,99169.95
2019-01-05T16:26:26.519Z,99162.20
2019-01-05T16:29:14.732Z,99170.54
2019-01-05T16:32:02.854Z,99167.47
2019-01-05T16:34:51.926Z,99172.27
2019-01-05T16:37:30.002Z,99176.59
2019-01-05T16:40:21.828Z,99174.55
2019-01-05T16:43:06.521Z,99176.03
2019-01-05T16:45:46.581Z,99173.62
2019-01-05T16:48:52.889Z,99177.87
2019-01-05T16:51:47.525Z,99182.68
2019-01-05T16:54:36.709Z,99177.41
2019-01-05T16:57:24.458Z,99180.86
2019-01-05T17:00:19.438Z,99180.30
2019-01-05T17:03:03.620Z,99181.56
2019-01-05T17:05:51.223Z,99178.11
2019-01-05T17:08:54.506Z,99184.08
2019-01-05T17:11:42.109Z,99193.56
2019-01-05T17:14:37.129Z,99189.21
2019-01-05T17:17:17.501Z,99186.36
2019-01-05T17:20:11.959Z,99188.42
2019-01-05T17:23:07.139Z,99189.67
2019-01-05T17:25:55.814Z,99189.91
2019-01-05T17:28:50.873Z,99186.94
2019-01-05T17:31:57.684Z,99195.17
2019-01-05T17:34:49.773Z,99187.27
2019-01-05T17:37:41.580Z,99186.83
2019-01-05T17:40:33.669Z,99192.06
2019-01-05T17:43:18.614Z,99190.25
2019-01-05T17:46:20.484Z,99195.74
2019-01-05T17:49:19.107Z,99193.33
2019-01-05T17:52:06.691Z,99185.66
2019-01-05T17:55:05.060Z,99182.12
2019-01-05T17:58:06.143Z,99180.08
2019-01-05T18:00:59.090Z,99179.94
2019-01-05T18:03:50.557Z,99179.23
2019-01-05T18:06:51.537Z,99179.13
2019-01-05T18:09:46.302Z,99187.03
2019-01-05T18:12:33.803Z,99184.74
2019-01-05T18:15:21.406Z,99180.63
2019-01-05T18:18:08.998Z,99184.28
2019-01-05T18:20:58.000Z,99181.89
2019-01-05T18:23:46.289Z,99192.66
2019-01-05T18:26:35.173Z,99193.69
2019-01-05T18:29:42.278Z,99193.13
2019-01-05T18:32:35.899Z,99194.83
2019-01-05T18:35:20.231Z,99204.57
2019-01-05T18:38:04.659Z,99193.14
2019-01-05T18:40:52.443Z,99195.05
2019-01-05T18:43:39.556Z,99195.98
2019-01-05T18:46:28.396Z,99197.34
2019-01-05T18:49:16.465Z,99195.29
2019-01-05T18:52:03.686Z,99197.71
2019-01-05T18:54:50.739Z,99195.66
2019-01-05T18:57:38.976Z,99193.56
2019-01-05T19:00:35.147Z,99191.18
2019-01-05T19:03:34.200Z,99192.31
2019-01-05T19:06:35.352Z,99194.59
2019-01-05T19:09:25.877Z,99199.30
2019-01-05T19:12:16.708Z,99198.97
2019-01-05T19:15:09.209Z,99203.77
2019-01-05T19:17:57.151Z,99199.86
2019-01-05T19:21:04.304Z,99199.07
2019-01-05T19:23:56.232Z,99194.59
2019-01-05T19:26:57.018Z,99200.56
2019-01-05T19:29:52.840Z,99202.15
2019-01-05T19:32:35.659Z,99204.23
2019-01-05T19:35:19.400Z,99198.97
2019-01-05T19:38:17.167Z,99207.42
2019-01-05T19:41:15.467Z,99206.63
2019-01-05T19:44:10.591Z,99209.84
2019-01-05T19:47:03.980Z,99208.68
2019-01-05T19:49:46.304Z,99206.86
2019-01-05T19:52:33.994Z,99208.81
2019-01-05T19:55:14.411Z,99205.37
2019-01-05T19:58:01.863Z,99210.41
2019-01-05T20:00:43.990Z,99207.33
2019-01-05T20:03:42.180Z,99208.69
2019-01-05T20:06:43.438Z,99206.63
2019-01-05T20:09:30.882Z,99203.55
2019-01-05T20:12:18.458Z,99208.35
2019-01-05T20:15:16.481Z,99206.06
2019-01-05T20:21:56.787Z,99206.06
2019-01-05T20:24:46.128Z,99200.80
2019-01-05T20:27:33.872Z,99199.20
2019-01-05T20:30:25.901Z,99198.84
2019-01-05T20:33:29.665Z,99201.26
2019-01-05T20:42:38.251Z,99196.55
2019-01-05T20:45:33.178Z,99196.92
2019-01-05T20:48:13.738Z,99204.11
2019-01-05T20:51:15.414Z,99199.77
2019-01-05T20:54:10.512Z,99201.02
2019-01-05T20:57:02.179Z,99208.59
2019-01-05T20:59:55.388Z,99205.60
2019-01-05T21:02:42.782Z,99216.84
2019-01-05T21:05:32.515Z,99221.18
2019-01-05T21:08:36.588Z,99221.08
2019-01-05T21:11:22.645Z,99219.92
2019-01-05T21:14:23.623Z,99218.77
2019-01-05T21:17:09.685Z,99212.46
2019-01-05T21:19:54.801Z,99214.42
2019-01-05T21:22:44.042Z,99221.52
2019-01-05T21:25:40.620Z,99215.11
2019-01-05T21:28:25.579Z,99216.23
2019-01-05T21:31:16.532Z,99213.85
2019-01-05T21:34:08.216Z,99216.47
2019-01-05T21:36:56.082Z,99218.20
2019-01-05T21:39:39.460Z,99216.23
2019-01-05T21:42:29.475Z,99218.09
2019-01-05T21:45:16.986Z,99216.70
2019-01-05T21:48:04.611Z,99213.06
2019-01-05T21:51:11.718Z,99215.58
2019-01-05T21:53:50.377Z,99214.98
2019-01-05T21:56:38.171Z,99217.41
2019-01-05T21:59:23.345Z,99218.56
2019-01-05T22:02:08.113Z,99219.59
2019-01-05T22:04:55.942Z,99220.61
2019-01-05T22:07:43.441Z,99223.00
2019-01-05T22:10:28.683Z,99219.12
2019-01-05T22:13:29.478Z,99221.88
2019-01-05T22:16:17.146Z,99222.77
2019-01-05T22:19:09.110Z,99226.67
2019-01-05T22:22:13.151Z,99229.06
2019-01-05T22:25:02.382Z,99229.30
2019-01-05T22:28:00.208Z,99231.25
2019-01-05T22:47:43.152Z,99234.23
2019-01-05T22:50:45.233Z,99234.80
2019-01-05T22:53:33.019Z,99227.48
2019-01-05T22:56:20.593Z,99225.19
2019-01-05T22:59:10.732Z,99221.05
2019-01-05T23:02:12.758Z,99221.64
2019-01-05T23:05:08.032Z,99220.61
2019-01-05T23:07:57.489Z,99219.12
2019-01-05T23:10:53.253Z,99220.94
2019-01-05T23:13:41.205Z,99227.14
2019-01-05T23:16:25.924Z,99220.25
2019-01-05T23:19:13.228Z,99223.70
2019-01-05T23:22:01.444Z,99223.93
2019-01-05T23:25:00.691Z,99219.12
2019-01-05T23:27:44.238Z,99224.72
2019-01-05T23:34:25.398Z,99224.26
2019-01-05T23:37:13.750Z,99213.48
2019-01-05T23:40:02.696Z,99211.89
2019-01-05T23:42:53.484Z,99207.89
2019-01-05T23:49:29.634Z,99216.59
2019-01-05T23:52:24.689Z,99213.28
2019-01-05T23:55:29.013Z,99218.66
2019-01-05T23:58:46.271Z,99215.45
